createdAt,value
2022-09-17T00:02:16.519Z,0.00
2022-09-17T00:07:19.504Z,0.00
2022-09-17T00:12:23.557Z,0.00
2022-09-17T00:17:26.457Z,0.00
2022-09-17T00:22:29.078Z,0.00
2022-09-17T00:27:33.245Z,0.00
2022-09-17T00:32:35.922Z,0.00
2022-09-17T00:37:38.613Z,0.00
2022-09-17T00:42:42.579Z,0.00
2022-09-17T00:47:46.909Z,0.00
2022-09-17T00:52:51.612Z,0.00
2022-09-17T00:57:57.953Z,0.00
2022-09-17T01:03:00.686Z,0.00
2022-09-17T01:08:08.856Z,0.00
2022-09-17T01:13:18.442Z,0.00
2022-09-17T01:18:26.765Z,0.00
2022-09-17T01:23:52.090Z,0.00
2022-09-17T01:28:58.585Z,0.00
2022-09-17T01:34:06.108Z,0.00
2022-09-17T01:39:13.176Z,0.00
2022-09-17T01:44:18.688Z,0.00
2022-09-17T01:49:22.692Z,0.00
2022-09-17T01:54:26.908Z,0.00
2022-09-17T01:59:31.450Z,0.00
2022-09-17T02:04:37.466Z,0.00
2022-09-17T02:09:42.117Z,0.00
2022-09-17T02:14:46.874Z,0.00
2022-09-17T02:19:50.860Z,0.00
2022-09-17T02:24:58.538Z,0.00
2022-09-17T02:30:01.226Z,0.00
2022-09-17T02:35:06.377Z,0.00
2022-09-17T02:40:10.461Z,0.00
2022-09-17T02:45:15.881Z,0.00
2022-09-17T02:50:25.614Z,0.00
2022-09-17T02:55:31.956Z,0.00
2022-09-17T03:00:35.994Z,0.00
2022-09-17T03:05:41.968Z,0.00
2022-09-17T03:10:44.608Z,0.00
2022-09-17T03:15:47.311Z,0.00
2022-09-17T03:20:51.328Z,0.00
2022-09-17T03:25:53.976Z,0.00
2022-09-17T03:30:56.773Z,0.00
2022-09-17T03:36:00.992Z,0.00
2022-09-17T03:41:04.958Z,0.00
2022-09-17T03:46:07.689Z,0.00
2022-09-17T03:51:11.677Z,0.00
2022-09-17T03:56:14.465Z,0.00
2022-09-17T04:01:17.264Z,0.00
2022-09-17T04:06:21.284Z,0.00
2022-09-17T04:11:24.053Z,0.00
2022-09-17T04:16:26.791Z,0.00
2022-09-17T04:21:30.956Z,0.00
2022-09-17T04:26:33.618Z,0.00
2022-09-17T04:31:36.299Z,0.00
2022-09-17T04:36:40.394Z,0.00
2022-09-17T04:41:43.054Z,0.00
2022-09-17T04:46:45.833Z,0.00
2022-09-17T04:51:49.906Z,0.00
2022-09-17T04:56:52.570Z,0.00
2022-09-17T05:01:55.523Z,0.00
2022-09-17T05:07:00.258Z,0.00
2022-09-17T05:12:03.386Z,0.00
2022-09-17T05:17:06.128Z,0.00
2022-09-17T05:22:10.110Z,0.00
2022-09-17T05:27:12.849Z,0.00
2022-09-17T05:32:15.523Z,0.00
2022-09-17T05:37:19.622Z,0.00
2022-09-17T05:42:22.325Z,0.00
2022-09-17T05:47:25.082Z,0.00
2022-09-17T05:52:29.804Z,0.00
2022-09-17T05:57:32.584Z,0.00
2022-09-17T06:02:35.618Z,0.00
2022-09-17T06:07:39.967Z,0.00
2022-09-17T06:12:42.640Z,0.00
2022-09-17T06:17:45.285Z,0.00
2022-09-17T06:22:49.492Z,0.00
2022-09-17T06:27:52.247Z,0.00
2022-09-17T06:32:54.955Z,0.00
2022-09-17T06:37:58.932Z,0.00
2022-09-17T06:43:01.571Z,0.00
2022-09-17T06:48:05.552Z,0.00
2022-09-17T06:53:10.098Z,0.00
2022-09-17T06:58:12.757Z,0.00
2022-09-17T07:03:16.537Z,0.00
2022-09-17T07:08:26.941Z,0.00
2022-09-17T07:13:29.671Z,0.00
2022-09-17T07:18:32.285Z,0.00
2022-09-17T07:23:36.843Z,0.00
2022-09-17T07:28:39.755Z,0.00
2022-09-17T07:33:42.422Z,0.00
2022-09-17T07:38:47.330Z,0.00
2022-09-17T07:43:53.074Z,0.00
2022-09-17T07:48:55.985Z,0.00
2022-09-17T07:54:00.250Z,0.00
2022-09-17T07:59:03.414Z,0.00
2022-09-17T08:04:06.075Z,0.00
2022-09-17T08:09:10.844Z,0.00
2022-09-17T08:14:14.620Z,0.00
2022-09-17T08:19:19.141Z,0.00
2022-09-17T08:24:23.418Z,0.00
2022-09-17T08:29:26.201Z,0.00
2022-09-17T08:34:28.988Z,0.00
2022-09-17T08:39:32.956Z,0.00
2022-09-17T08:44:41.105Z,0.00
2022-09-17T08:49:49.567Z,0.00
2022-09-17T08:54:56.732Z,0.00
2022-09-17T09:00:01.488Z,0.00
2022-09-17T09:05:06.833Z,0.00
2022-09-17T09:10:15.314Z,0.00
2022-09-17T09:15:34.936Z,0.00
2022-09-17T09:20:41.321Z,0.00
2022-09-17T09:25:53.426Z,0.00
2022-09-17T09:31:00.180Z,0.00
2022-09-17T09:36:03.184Z,0.00
2022-09-17T09:41:09.827Z,0.00
2022-09-17T09:46:26.488Z,0.00
2022-09-17T09:51:33.815Z,0.00
2022-09-17T09:56:48.110Z,0.00
2022-09-17T10:01:51.122Z,0.00
2022-09-17T10:06:55.069Z,0.00
2022-09-17T10:12:04.051Z,0.00
2022-09-17T10:17:18.108Z,0.00
2022-09-17T10:22:24.953Z,1.80
2022-09-17T10:27:29.342Z,1.00
2022-09-17T10:32:32.164Z,1.00
2022-09-17T10:37:37.483Z,1.20
2022-09-17T10:42:41.473Z,1.00
2022-09-17T10:47:44.197Z,1.00
2022-09-17T10:52:48.325Z,1.00
2022-09-17T10:58:03.968Z,1.00
2022-09-17T11:03:36.369Z,0.20
2022-09-17T11:08:40.542Z,0.20
2022-09-17T11:13:47.176Z,0.00
2022-09-17T11:18:51.260Z,0.40
2022-09-17T11:24:10.027Z,1.00
2022-09-17T11:29:27.227Z,0.00
2022-09-17T11:34:33.137Z,0.00
2022-09-17T11:39:40.454Z,0.00
2022-09-17T11:44:48.218Z,0.00
2022-09-17T11:49:53.293Z,0.00
2022-09-17T11:56:16.500Z,0.00
2022-09-17T12:01:22.988Z,0.00
2022-09-17T12:06:29.938Z,0.00
2022-09-17T12:11:34.890Z,0.00
2022-09-17T12:16:40.150Z,0.00
2022-09-17T12:21:44.265Z,0.00
2022-09-17T12:27:01.279Z,0.00
2022-09-17T12:32:10.268Z,0.00
2022-09-17T12:37:16.050Z,0.00
2022-09-17T12:42:25.813Z,0.00
2022-09-17T12:47:54.454Z,0.00
2022-09-17T12:53:05.243Z,0.00
2022-09-17T12:58:12.247Z,0.00
2022-09-17T13:03:20.909Z,0.00
2022-09-17T13:08:40.101Z,0.00
2022-09-17T13:13:44.875Z,0.00
2022-09-17T13:19:15.130Z,0.00
2022-09-17T13:24:16.576Z,0.00
2022-09-17T13:29:58.064Z,0.00
2022-09-17T13:35:22.366Z,0.00
2022-09-17T13:40:25.963Z,0.00
2022-09-17T13:45:28.655Z,0.00
2022-09-17T13:50:33.859Z,0.00
2022-09-17T13:55:37.352Z,0.00
2022-09-17T14:00:54.168Z,0.00
2022-09-17T14:05:58.263Z,0.00
2022-09-17T14:11:04.364Z,0.00
2022-09-17T14:16:46.951Z,0.00
2022-09-17T14:22:00.642Z,0.00
2022-09-17T14:27:09.946Z,0.00
2022-09-17T14:32:15.992Z,0.00
2022-09-17T14:37:21.166Z,0.00
2022-09-17T14:42:25.292Z,0.00
2022-09-17T14:47:28.022Z,0.00
2022-09-17T14:52:32.648Z,0.00
2022-09-17T14:57:36.489Z,0.00
2022-09-17T15:02:41.428Z,0.00
2022-09-17T15:07:45.735Z,0.00
2022-09-17T15:12:48.729Z,0.00
2022-09-17T15:17:52.085Z,0.00
2022-09-17T15:22:58.127Z,0.00
2022-09-17T15:28:04.411Z,0.00
2022-09-17T15:33:11.702Z,0.00
2022-09-17T15:38:23.888Z,0.00
2022-09-17T15:43:28.000Z,0.00
2022-09-17T15:48:36.947Z,0.00
2022-09-17T15:53:40.940Z,0.00
2022-09-17T15:58:53.176Z,0.00
2022-09-17T16:04:41.083Z,0.00
2022-09-17T16:09:47.931Z,0.00
2022-09-17T16:14:52.190Z,0.00
2022-09-17T16:19:55.662Z,0.00
2022-09-17T16:24:59.726Z,0.00
2022-09-17T16:30:04.262Z,0.00
2022-09-17T16:35:07.385Z,0.00
2022-09-17T16:40:12.576Z,0.00
2022-09-17T16:45:15.704Z,0.00
2022-09-17T16:50:18.762Z,0.00
2022-09-17T16:55:22.762Z,0.00
2022-09-17T17:00:25.528Z,0.00
2022-09-17T17:05:28.257Z,15.75
2022-09-17T17:10:32.306Z,10.80
2022-09-17T17:15:34.970Z,7.00
2022-09-17T17:20:37.633Z,5.00
2022-09-17T17:25:41.611Z,4.00
2022-09-17T17:30:48.018Z,2.20
2022-09-17T17:35:50.851Z,3.00
2022-09-17T17:41:04.564Z,2.00
2022-09-17T17:46:07.762Z,1.40
2022-09-17T17:51:10.832Z,1.00
2022-09-17T17:56:14.845Z,1.00
2022-09-17T18:01:19.496Z,0.00
2022-09-17T18:06:22.214Z,1.00
2022-09-17T18:11:26.305Z,1.00
2022-09-17T18:16:29.147Z,0.00
2022-09-17T18:21:31.976Z,1.00
2022-09-17T18:26:36.030Z,1.00
2022-09-17T18:31:38.822Z,0.00
2022-09-17T18:36:41.665Z,0.00
2022-09-17T18:41:45.818Z,0.00
2022-09-17T18:46:49.900Z,0.00
2022-09-17T18:51:52.630Z,0.00
2022-09-17T18:56:56.711Z,0.20
2022-09-17T19:01:59.841Z,0.00
2022-09-17T19:07:02.763Z,0.00
2022-09-17T19:12:06.970Z,0.00
2022-09-17T19:17:09.949Z,0.00
2022-09-17T19:22:12.726Z,0.00
2022-09-17T19:27:16.763Z,0.40
2022-09-17T19:32:19.429Z,0.00
2022-09-17T19:37:22.170Z,0.00
2022-09-17T19:42:26.294Z,0.00
2022-09-17T19:47:29.205Z,0.00
2022-09-17T19:52:31.881Z,0.00
2022-09-17T19:57:36.000Z,0.00
2022-09-17T20:02:38.729Z,0.00
2022-09-17T20:07:42.735Z,0.00
2022-09-17T20:12:46.785Z,0.00
2022-09-17T20:17:49.532Z,0.00
2022-09-17T20:22:52.778Z,0.00
2022-09-17T20:27:56.852Z,0.00
2022-09-17T20:32:59.550Z,0.00
2022-09-17T20:43:26.823Z,0.00
2022-09-17T20:48:30.785Z,0.00
2022-09-17T20:53:34.411Z,0.00
2022-09-17T20:58:45.284Z,0.00
2022-09-17T21:03:49.982Z,0.00
2022-09-17T21:08:53.142Z,0.00
2022-09-17T21:13:57.210Z,0.00
2022-09-17T21:19:01.745Z,0.00
2022-09-17T21:24:05.475Z,0.00
2022-09-17T21:29:09.643Z,0.00
2022-09-17T21:34:13.322Z,0.00
2022-09-17T21:39:17.535Z,0.00
2022-09-17T21:44:21.859Z,0.00
2022-09-17T21:49:24.798Z,0.00
2022-09-17T21:54:27.514Z,0.00
2022-09-17T21:59:31.516Z,0.00
2022-09-17T22:04:34.343Z,0.00
2022-09-17T22:09:37.172Z,0.00
2022-09-17T22:14:41.318Z,0.00
2022-09-17T22:19:44.032Z,0.00
2022-09-17T22:24:46.683Z,0.00
2022-09-17T22:29:50.790Z,0.00
2022-09-17T22:34:53.912Z,0.00
2022-09-17T22:39:57.046Z,0.00
2022-09-17T22:45:01.604Z,0.00
2022-09-17T22:50:04.449Z,0.00
2022-09-17T22:55:07.402Z,0.00
2022-09-17T23:00:13.153Z,0.00
2022-09-17T23:05:16.001Z,0.00
2022-09-17T23:10:18.960Z,0.00
2022-09-17T23:15:27.214Z,0.00
2022-09-17T23:20:29.999Z,0.00
2022-09-17T23:25:33.064Z,0.00
2022-09-17T23:30:37.123Z,0.00
2022-09-17T23:35:39.811Z,0.00
2022-09-17T23:40:42.685Z,0.00
2022-09-17T23:45:46.775Z,0.00
2022-09-17T23:50:49.668Z,0.00
2022-09-17T23:55:52.423Z,0.00
